Time;durP1;ratioP1;P1;durP2;ratioP2;P2;SDS_P1;SDS_P2;PMS_P1;PMS_P2;Temp;Humidity;BMP_temperature;BMP_pressure;BME280_temperature;BME280_humidity;BME280_pressure;Samples;Min_cycle;Max_cycle;Signal;HPM_P1;HPM_P2
2022/05/13 00:01:58;;;;;;;6.10;4.83;;;14.70;99.90;;;;;;5052506;28;20210;-69
2022/05/13 00:04:23;;;;;;;7.00;5.77;;;14.60;99.90;;;;;;5052908;28;20253;-69
2022/05/13 00:06:49;;;;;;;5.63;5.13;;;14.70;99.90;;;;;;5044692;28;20670;-69
2022/05/13 00:09:15;;;;;;;7.27;5.03;;;14.70;99.90;;;;;;5040952;28;20266;-70
2022/05/13 00:11:40;;;;;;;8.90;5.00;;;14.70;99.90;;;;;;5038164;28;20175;-69
2022/05/13 00:14:08;;;;;;;5.83;4.80;;;14.70;99.90;;;;;;5057945;28;20265;-69
2022/05/13 00:16:35;;;;;;;8.93;6.43;;;14.80;99.90;;;;;;5041957;28;20227;-70
2022/05/13 00:19:03;;;;;;;5.80;5.20;;;14.80;99.90;;;;;;5054168;28;20897;-69
2022/05/13 00:21:28;;;;;;;6.17;5.60;;;14.70;99.90;;;;;;5053199;28;20511;-69
2022/05/13 00:23:54;;;;;;;6.27;5.67;;;14.80;99.90;;;;;;5062894;28;20412;-69
2022/05/13 00:26:19;;;;;;;8.27;5.13;;;14.80;99.90;;;;;;5068660;28;20180;-69
2022/05/13 00:28:45;;;;;;;7.43;5.47;;;14.60;99.90;;;;;;5070058;28;20210;-69
2022/05/13 00:31:12;;;;;;;5.23;4.80;;;14.60;99.90;;;;;;5069668;28;20171;-69
2022/05/13 00:33:38;;;;;;;6.77;4.50;;;14.70;99.90;;;;;;5067566;28;20254;-69
2022/05/13 00:36:04;;;;;;;4.93;4.53;;;14.70;99.90;;;;;;5065663;28;20794;-68
2022/05/13 00:38:30;;;;;;;6.17;5.60;;;14.50;99.90;;;;;;5054848;28;20417;-69
2022/05/13 00:40:56;;;;;;;5.03;4.30;;;14.40;99.90;;;;;;5053697;28;20416;-69
2022/05/13 00:43:51;;;;;;;5.83;4.83;;;14.40;99.90;;;;;;5036385;28;20289;-69
2022/05/13 00:46:16;;;;;;;5.73;4.37;;;14.50;99.90;;;;;;5054000;28;20667;-68
2022/05/13 00:48:43;;;;;;;5.83;5.00;;;14.50;99.90;;;;;;5053917;28;20458;-69
2022/05/13 00:51:11;;;;;;;7.20;4.50;;;14.50;99.90;;;;;;5047299;28;20696;-69
2022/05/13 00:53:37;;;;;;;6.43;4.50;;;14.40;99.90;;;;;;5032468;28;20529;-69
2022/05/13 00:56:04;;;;;;;5.53;4.60;;;14.40;99.90;;;;;;5032388;28;20475;-69
2022/05/13 00:58:31;;;;;;;6.60;4.73;;;14.40;99.90;;;;;;5032360;28;20437;-71
2022/05/13 01:00:57;;;;;;;11.83;5.00;;;14.40;99.90;;;;;;5036285;28;20771;-70
2022/05/13 01:03:22;;;;;;;5.90;4.73;;;14.40;99.90;;;;;;5031773;28;20453;-69
2022/05/13 01:05:53;;;;;;;7.37;4.70;;;14.40;99.90;;;;;;5032458;28;20628;-69
2022/05/13 01:08:20;;;;;;;8.43;5.03;;;14.40;99.90;;;;;;5031556;28;20639;-69
2022/05/13 01:10:47;;;;;;;5.53;4.60;;;14.40;99.90;;;;;;5013937;28;20825;-69
2022/05/13 01:13:20;;;;;;;6.28;4.70;;;14.40;99.90;;;;;;5050430;28;20541;-69
2022/05/13 01:15:48;;;;;;;6.97;5.20;;;14.20;99.90;;;;;;5051726;28;20186;-69
2022/05/13 01:18:24;;;;;;;6.33;5.73;;;13.90;99.90;;;;;;5051109;28;20413;-69
2022/05/13 01:20:50;;;;;;;7.80;6.80;;;13.90;99.90;;;;;;5050145;28;20404;-69
2022/05/13 01:23:31;;;;;;;7.50;5.30;;;13.80;99.90;;;;;;5051279;28;20189;-69
2022/05/13 01:26:03;;;;;;;4.30;3.90;;;13.80;99.90;;;;;;5049358;28;21046;-69
2022/05/13 01:28:36;;;;;;;5.50;4.50;;;13.60;99.90;;;;;;5049737;28;20412;-68
2022/05/13 01:31:08;;;;;;;9.03;4.80;;;13.60;99.90;;;;;;5030377;28;20420;-68
2022/05/13 01:33:36;;;;;;;7.00;4.93;;;13.60;99.90;;;;;;5051557;28;20481;-69
2022/05/13 01:36:04;;;;;;;8.33;3.60;;;13.50;99.90;;;;;;5054827;28;20590;-68
2022/05/13 01:38:35;;;;;;;4.83;3.90;;;13.60;99.90;;;;;;5037217;28;20473;-69
2022/05/13 01:41:02;;;;;;;9.03;5.50;;;13.70;99.90;;;;;;5054335;28;20411;-69
2022/05/13 01:43:28;;;;;;;7.50;5.67;;;13.60;99.90;;;;;;5054489;28;20435;-69
2022/05/13 01:45:54;;;;;;;7.27;6.57;;;13.60;99.90;;;;;;5054382;28;20870;-69
2022/05/13 01:48:20;;;;;;;11.90;6.13;;;13.40;99.90;;;;;;5066391;28;20392;-69
2022/05/13 01:50:46;;;;;;;4.37;3.97;;;13.30;99.90;;;;;;5074091;28;20514;-68
2022/05/13 01:53:12;;;;;;;5.40;3.50;;;13.40;99.90;;;;;;5060405;28;20440;-69
2022/05/13 01:55:42;;;;;;;7.60;3.60;;;13.50;99.90;;;;;;5054404;28;20921;-68
2022/05/13 01:58:09;;;;;;;4.73;3.40;;;13.40;99.90;;;;;;5054304;28;20539;-69
2022/05/13 02:00:35;;;;;;;4.20;3.80;;;13.50;99.90;;;;;;5035774;28;20566;-69
2022/05/13 02:05:45;;;;;;;8.97;4.13;;;13.60;99.90;;;;;;5054289;28;20240;-69
2022/05/13 02:08:10;;;;;;;4.53;3.43;;;13.50;99.90;;;;;;5054272;28;20436;-69
2022/05/13 02:10:36;;;;;;;7.77;4.67;;;13.60;99.90;;;;;;5053981;28;20262;-69
2022/05/13 02:13:01;;;;;;;6.57;3.70;;;13.60;99.90;;;;;;5053742;28;20697;-69
2022/05/13 02:15:27;;;;;;;4.43;3.20;;;13.70;99.90;;;;;;5053687;28;20582;-69
2022/05/13 02:17:52;;;;;;;7.60;5.47;;;13.80;99.90;;;;;;5053877;28;20677;-69
2022/05/13 02:20:18;;;;;;;6.37;5.00;;;13.80;99.90;;;;;;5053643;28;20178;-69
2022/05/13 02:22:43;;;;;;;6.07;3.90;;;13.80;99.90;;;;;;5053995;28;20230;-68
2022/05/13 02:25:10;;;;;;;4.47;3.30;;;13.70;99.90;;;;;;5053771;28;20205;-68
2022/05/13 02:27:35;;;;;;;3.73;3.07;;;13.80;99.90;;;;;;5053624;28;20202;-69
2022/05/13 02:30:02;;;;;;;5.03;4.17;;;13.60;99.90;;;;;;5053524;28;20490;-69
2022/05/13 02:32:27;;;;;;;5.10;4.60;;;13.40;99.90;;;;;;5053049;28;20203;-69
2022/05/13 02:34:53;;;;;;;6.77;5.50;;;13.20;99.90;;;;;;5053546;28;20431;-69
2022/05/13 02:37:18;;;;;;;6.40;4.70;;;13.00;99.90;;;;;;5053343;28;20251;-69
2022/05/13 02:39:44;;;;;;;5.90;4.83;;;12.90;99.90;;;;;;5053453;28;20178;-70
2022/05/13 02:42:09;;;;;;;6.13;5.50;;;12.80;99.90;;;;;;5053464;28;20244;-69
2022/05/13 02:44:35;;;;;;;6.10;5.17;;;12.70;99.90;;;;;;5053366;28;20240;-69
2022/05/13 02:47:00;;;;;;;7.13;5.10;;;12.60;99.90;;;;;;5035634;28;20178;-69
2022/05/13 02:49:26;;;;;;;6.90;5.50;;;12.50;99.90;;;;;;5035540;28;20171;-68
2022/05/13 02:51:51;;;;;;;7.50;6.70;;;12.50;99.90;;;;;;5053441;28;20202;-69
2022/05/13 02:54:17;;;;;;;7.93;5.40;;;12.40;99.90;;;;;;5053526;28;20290;-70
2022/05/13 02:56:43;;;;;;;5.83;5.20;;;12.50;99.90;;;;;;5053627;28;20174;-68
2022/05/13 02:59:09;;;;;;;8.30;5.77;;;12.50;99.90;;;;;;5053393;28;20711;-69
2022/05/13 03:01:35;;;;;;;6.27;5.53;;;12.60;99.90;;;;;;5057058;28;20434;-70
2022/05/13 03:04:01;;;;;;;7.30;5.70;;;12.60;99.90;;;;;;5054134;28;20420;-71
2022/05/13 03:06:27;;;;;;;9.30;5.37;;;12.60;99.90;;;;;;5054025;28;20416;-68
2022/05/13 03:08:53;;;;;;;5.47;4.97;;;12.70;99.90;;;;;;5053717;28;20750;-69
2022/05/13 03:11:20;;;;;;;6.60;5.13;;;12.70;99.90;;;;;;5034880;28;20180;-69
2022/05/13 03:13:46;;;;;;;5.40;4.90;;;12.90;99.90;;;;;;5053174;28;20933;-70
2022/05/13 03:16:18;;;;;;;5.90;4.43;;;12.90;99.90;;;;;;5052877;28;20423;-69
2022/05/13 03:18:44;;;;;;;5.50;4.70;;;12.90;99.90;;;;;;5053254;28;20436;-69
2022/05/13 03:21:10;;;;;;;6.77;4.43;;;12.90;99.90;;;;;;5052885;28;20419;-69
2022/05/13 03:23:35;;;;;;;6.17;3.83;;;12.90;99.90;;;;;;5052822;28;20421;-69
2022/05/13 03:26:01;;;;;;;5.17;4.17;;;13.00;99.90;;;;;;5034783;28;20452;-69
2022/05/13 03:28:27;;;;;;;4.23;3.63;;;13.10;99.90;;;;;;5052848;28;20540;-69
2022/05/13 03:30:52;;;;;;;4.37;3.80;;;13.10;99.90;;;;;;5052156;28;20822;-69
2022/05/13 03:33:19;;;;;;;8.70;4.40;;;13.10;99.90;;;;;;5034176;28;20197;-69
2022/05/13 03:35:45;;;;;;;7.90;4.00;;;13.20;99.90;;;;;;5053112;28;20175;-69
2022/05/13 03:38:10;;;;;;;4.70;3.63;;;13.20;99.90;;;;;;5053096;28;20775;-69
2022/05/13 03:40:36;;;;;;;5.10;3.70;;;13.00;99.90;;;;;;5052264;28;20411;-68
2022/05/13 03:43:04;;;;;;;5.60;3.70;;;13.10;99.90;;;;;;5052899;28;20599;-69
2022/05/13 03:45:32;;;;;;;5.03;3.60;;;13.10;99.90;;;;;;5052463;28;20496;-69
2022/05/13 03:47:59;;;;;;;4.20;3.40;;;13.10;99.90;;;;;;5052374;28;20409;-70
2022/05/13 03:50:25;;;;;;;7.13;4.00;;;13.00;99.90;;;;;;5051992;28;20404;-69
2022/05/13 03:52:51;;;;;;;4.97;3.30;;;13.10;99.90;;;;;;5051090;28;20444;-69
2022/05/13 03:55:17;;;;;;;4.90;3.43;;;13.10;99.90;;;;;;5051660;28;20416;-69
2022/05/13 03:57:42;;;;;;;7.03;3.73;;;13.10;99.90;;;;;;5052254;28;20178;-68
2022/05/13 04:00:09;;;;;;;3.87;3.20;;;13.00;99.90;;;;;;5052162;28;20441;-69
2022/05/13 04:02:35;;;;;;;2.90;2.70;;;13.10;99.90;;;;;;5051744;28;20206;-68
2022/05/13 04:10:29;;;;;;;5.83;2.87;;;12.80;99.90;;;;;;5024904;22;20494;-69
2022/05/13 04:18:22;;;;;;;4.03;2.97;;;12.90;99.90;;;;;;4957954;28;21175;-68
2022/05/13 04:20:48;;;;;;;5.20;3.23;;;12.90;99.90;;;;;;5060993;28;20444;-70
2022/05/13 04:23:16;;;;;;;6.60;2.97;;;13.00;99.90;;;;;;5082940;28;20665;-70
2022/05/13 04:25:41;;;;;;;4.87;2.80;;;12.90;99.90;;;;;;5083750;28;20240;-69
2022/05/13 04:28:07;;;;;;;5.93;2.80;;;13.00;99.90;;;;;;5077327;28;20486;-71
2022/05/13 04:30:32;;;;;;;4.00;2.77;;;12.90;99.90;;;;;;5079088;28;20300;-70
2022/05/13 04:32:58;;;;;;;7.63;3.07;;;12.90;99.90;;;;;;5081825;28;20207;-70
2022/05/13 04:35:23;;;;;;;5.97;3.10;;;12.90;99.90;;;;;;5075980;28;20819;-71
2022/05/13 04:37:49;;;;;;;4.23;2.33;;;12.90;99.90;;;;;;5072310;28;20232;-71
2022/05/13 04:40:14;;;;;;;7.77;3.10;;;13.00;99.90;;;;;;5070507;28;20205;-72
2022/05/13 04:42:49;;;;;;;3.67;2.50;;;13.10;99.90;;;;;;5070892;28;20717;-70
2022/05/13 04:45:24;;;;;;;8.10;3.70;;;13.10;99.90;;;;;;5070869;28;20282;-72
2022/05/13 04:50:38;;;;;;;7.17;2.80;;;13.10;99.90;;;;;;5069973;28;20431;-69
2022/05/13 04:53:05;;;;;;;5.93;2.77;;;13.20;99.90;;;;;;5069993;28;20411;-70
2022/05/13 04:55:30;;;;;;;8.00;3.07;;;13.30;99.90;;;;;;5069724;28;20416;-69
2022/05/13 04:57:56;;;;;;;7.23;3.00;;;13.30;99.90;;;;;;5070677;28;20481;-70
2022/05/13 05:00:22;;;;;;;7.03;2.97;;;13.30;99.90;;;;;;5069437;28;20210;-69
2022/05/13 05:02:47;;;;;;;5.87;3.03;;;13.30;99.90;;;;;;5069637;28;20176;-70
2022/05/13 05:05:13;;;;;;;7.80;3.00;;;13.20;99.90;;;;;;5069977;28;20935;-70
2022/05/13 05:07:39;;;;;;;5.50;2.90;;;13.20;99.90;;;;;;5074830;28;20189;-69
2022/05/13 05:10:05;;;;;;;7.33;2.87;;;13.20;99.90;;;;;;5075040;28;20619;-71
2022/05/13 05:12:30;;;;;;;8.60;3.60;;;13.30;99.90;;;;;;5070696;28;20209;-70
2022/05/13 05:14:57;;;;;;;9.43;3.10;;;13.30;99.90;;;;;;5071158;28;20423;-70
2022/05/13 05:17:23;;;;;;;5.33;2.90;;;13.20;99.90;;;;;;5087159;28;20630;-70
2022/05/13 05:19:48;;;;;;;5.67;2.77;;;13.20;99.90;;;;;;5074357;28;20454;-70
2022/05/13 05:22:14;;;;;;;9.60;3.57;;;13.20;99.90;;;;;;5084631;28;20198;-72
2022/05/13 05:24:40;;;;;;;7.80;3.00;;;13.30;99.90;;;;;;5081738;28;20207;-70
2022/05/13 05:27:09;;;;;;;7.40;3.20;;;13.30;99.90;;;;;;5076474;28;20660;-70
2022/05/13 05:29:35;;;;;;;5.80;3.13;;;13.30;99.90;;;;;;5082835;28;20478;-70
2022/05/13 05:32:01;;;;;;;8.07;3.50;;;13.30;99.90;;;;;;5077980;28;20415;-71
2022/05/13 05:34:26;;;;;;;4.10;3.07;;;13.20;99.90;;;;;;5083205;28;20423;-71
2022/05/13 05:36:52;;;;;;;8.57;3.07;;;13.10;99.90;;;;;;5084047;28;20185;-70
2022/05/13 05:39:17;;;;;;;7.03;3.40;;;13.20;99.90;;;;;;5074662;28;20247;-69
2022/05/13 05:41:43;;;;;;;8.43;3.13;;;13.20;99.90;;;;;;5086670;28;20196;-70
2022/05/13 05:44:08;;;;;;;7.20;3.23;;;13.30;99.90;;;;;;5076702;28;20256;-70
2022/05/13 05:46:34;;;;;;;9.90;3.57;;;13.40;99.90;;;;;;5080803;28;20188;-70
2022/05/13 05:48:59;;;;;;;7.40;3.50;;;13.50;99.90;;;;;;5083659;28;20273;-70
2022/05/13 05:51:25;;;;;;;7.33;3.50;;;13.60;99.90;;;;;;5085318;28;20935;-70
2022/05/13 05:59:19;;;;;;;6.33;3.90;;;13.70;99.90;;;;;;5074116;28;20505;-70
2022/05/13 06:01:45;;;;;;;6.43;3.40;;;13.80;99.90;;;;;;5082947;28;20414;-70
2022/05/13 06:04:11;;;;;;;5.00;3.10;;;13.90;99.90;;;;;;5083284;28;20606;-71
2022/05/13 06:06:37;;;;;;;5.83;4.40;;;13.80;99.90;;;;;;5080029;28;20434;-69
2022/05/13 06:09:02;;;;;;;6.60;3.80;;;13.80;99.90;;;;;;5083321;28;20239;-69
2022/05/13 06:11:28;;;;;;;6.87;3.73;;;13.80;99.90;;;;;;5065259;28;20188;-68
2022/05/13 06:13:55;;;;;;;7.63;3.20;;;13.80;99.90;;;;;;5072867;28;20176;-69
2022/05/13 06:16:23;;;;;;;8.33;3.43;;;13.80;99.90;;;;;;5071977;28;20961;-68
2022/05/13 06:18:49;;;;;;;4.57;3.60;;;13.80;99.90;;;;;;5070716;28;20424;-70
2022/05/13 06:21:15;;;;;;;6.77;3.80;;;13.70;99.90;;;;;;5070533;28;20432;-68
2022/05/13 06:23:40;;;;;;;7.53;3.90;;;13.70;99.90;;;;;;5086370;28;20955;-70
2022/05/13 06:26:06;;;;;;;5.73;3.50;;;13.80;99.90;;;;;;5092138;28;21034;-70
2022/05/13 06:28:32;;;;;;;11.53;4.00;;;13.70;99.90;;;;;;5092146;28;20168;-70
2022/05/13 06:30:57;;;;;;;6.50;3.40;;;13.70;99.90;;;;;;5092578;28;20181;-70
2022/05/13 06:33:23;;;;;;;5.73;3.57;;;13.70;99.90;;;;;;5092575;28;20172;-70
2022/05/13 06:35:50;;;;;;;10.20;3.60;;;13.80;99.90;;;;;;5092298;28;20179;-70
2022/05/13 06:38:20;;;;;;;9.70;3.20;;;13.70;99.90;;;;;;5093894;28;20410;-70
2022/05/13 06:40:47;;;;;;;5.30;3.93;;;13.70;99.90;;;;;;5092359;28;20521;-70
2022/05/13 06:43:12;;;;;;;6.37;3.40;;;13.70;99.90;;;;;;5094075;28;20422;-70
2022/05/13 06:45:38;;;;;;;8.77;3.77;;;13.70;99.90;;;;;;5093505;28;20450;-70
2022/05/13 06:48:05;;;;;;;9.33;4.03;;;13.80;99.90;;;;;;5091694;28;20546;-70
2022/05/13 06:50:32;;;;;;;5.37;3.17;;;13.90;99.90;;;;;;5093112;28;20189;-70
2022/05/13 06:52:57;;;;;;;6.00;4.37;;;14.00;99.90;;;;;;5093609;28;20434;-70
2022/05/13 06:55:23;;;;;;;10.73;3.40;;;14.00;99.90;;;;;;5093502;28;20442;-70
2022/05/13 06:57:49;;;;;;;10.00;3.63;;;14.10;99.90;;;;;;5091759;28;20177;-70
2022/05/13 07:00:15;;;;;;;5.00;3.07;;;14.10;99.90;;;;;;5093046;28;20484;-70
2022/05/13 07:02:41;;;;;;;6.10;3.40;;;14.20;99.90;;;;;;5093584;28;20511;-69
2022/05/13 07:05:08;;;;;;;7.63;3.60;;;14.30;99.90;;;;;;5093296;28;20224;-70
2022/05/13 07:07:34;;;;;;;9.93;4.90;;;14.30;99.90;;;;;;5091849;28;20399;-70
2022/05/13 07:10:00;;;;;;;10.03;4.20;;;14.40;99.90;;;;;;5093208;28;20446;-70
2022/05/13 07:12:25;;;;;;;6.03;3.50;;;14.50;99.90;;;;;;5093933;28;20223;-70
2022/05/13 07:14:53;;;;;;;8.87;3.83;;;14.60;99.90;;;;;;5093499;28;20173;-69
2022/05/13 07:17:19;;;;;;;4.73;3.33;;;14.70;99.90;;;;;;5092918;28;20460;-69
2022/05/13 07:19:45;;;;;;;6.77;3.57;;;14.80;99.90;;;;;;5091179;28;20486;-70
2022/05/13 07:22:10;;;;;;;7.30;3.33;;;15.00;99.90;;;;;;5093090;28;20177;-70
2022/05/13 07:24:36;;;;;;;6.00;3.20;;;15.10;99.90;;;;;;5092984;28;20193;-70
2022/05/13 07:27:01;;;;;;;6.93;3.20;;;15.20;99.90;;;;;;5093079;28;20176;-70
2022/05/13 07:29:27;;;;;;;8.67;3.70;;;15.40;99.60;;;;;;5090483;28;20199;-70
2022/05/13 07:31:52;;;;;;;5.07;2.87;;;15.60;99.10;;;;;;5091957;28;20195;-70
2022/05/13 07:34:18;;;;;;;3.80;2.60;;;15.60;98.40;;;;;;5072700;28;20260;-70
2022/05/13 07:36:45;;;;;;;6.40;3.10;;;15.60;98.30;;;;;;5072592;28;20173;-69
2022/05/13 07:41:54;;;;;;;6.03;2.80;;;15.70;98.40;;;;;;5072896;28;20438;-70
2022/05/13 07:44:20;;;;;;;6.43;2.90;;;15.80;98.10;;;;;;5072573;28;20404;-70
2022/05/13 07:46:46;;;;;;;10.40;3.17;;;15.80;97.90;;;;;;5072286;28;20245;-70
2022/05/13 07:49:12;;;;;;;4.60;2.40;;;15.80;97.90;;;;;;5072120;28;20289;-70
2022/05/13 07:51:37;;;;;;;5.00;3.17;;;15.80;98.00;;;;;;5073397;28;20420;-70
2022/05/13 07:54:03;;;;;;;12.87;3.70;;;15.80;97.80;;;;;;5072186;28;20403;-70
2022/05/13 07:56:29;;;;;;;5.83;3.10;;;15.90;97.80;;;;;;5072315;28;20173;-70
2022/05/13 07:58:57;;;;;;;7.20;2.83;;;15.80;97.60;;;;;;5071933;28;20453;-69
2022/05/13 08:01:23;;;;;;;7.13;3.03;;;15.90;97.60;;;;;;5071532;28;20424;-69
2022/05/13 08:03:49;;;;;;;5.67;2.70;;;16.00;97.60;;;;;;5072104;28;20876;-70
2022/05/13 08:06:14;;;;;;;6.47;2.70;;;16.10;97.50;;;;;;5071765;28;20460;-70
2022/05/13 08:08:42;;;;;;;6.33;3.17;;;16.10;97.10;;;;;;5072055;28;20169;-71
2022/05/13 08:11:10;;;;;;;4.87;2.70;;;16.10;96.90;;;;;;5071464;28;20208;-70
2022/05/13 08:13:37;;;;;;;4.20;3.13;;;16.20;96.90;;;;;;5072848;28;20427;-71
2022/05/13 08:16:05;;;;;;;4.20;2.47;;;16.20;96.80;;;;;;5071850;28;20418;-71
2022/05/13 08:18:31;;;;;;;4.43;3.00;;;16.30;96.50;;;;;;5071150;28;20939;-71
2022/05/13 08:20:57;;;;;;;3.73;2.80;;;16.40;96.30;;;;;;5071440;28;20439;-70
2022/05/13 08:23:23;;;;;;;8.00;2.63;;;16.50;96.30;;;;;;5073148;28;20424;-71
2022/05/13 08:25:49;;;;;;;8.53;3.27;;;16.50;96.10;;;;;;5071911;28;20566;-70
2022/05/13 08:28:17;;;;;;;3.70;2.40;;;16.50;95.80;;;;;;5074448;28;20273;-70
2022/05/13 08:30:43;;;;;;;5.90;3.00;;;16.50;95.60;;;;;;5072100;28;20428;-71
2022/05/13 08:33:09;;;;;;;5.73;2.43;;;16.60;95.30;;;;;;5073533;28;20435;-71
2022/05/13 08:35:40;;;;;;;6.37;2.83;;;16.80;94.90;;;;;;5072589;28;20202;-71
2022/05/13 08:38:06;;;;;;;4.93;2.50;;;17.00;94.60;;;;;;5063422;28;20423;-69
2022/05/13 08:40:54;;;;;;;4.60;2.30;;;17.10;94.00;;;;;;5069147;28;20484;-69
2022/05/13 08:43:45;;;;;;;6.80;2.90;;;17.00;93.80;;;;;;5073323;28;20178;-70
2022/05/13 08:46:22;;;;;;;4.37;2.70;;;17.00;93.70;;;;;;5074029;28;20465;-68
2022/05/13 08:48:54;;;;;;;7.80;2.67;;;16.80;93.60;;;;;;5106379;28;20422;-70
2022/05/13 08:51:30;;;;;;;6.73;2.70;;;16.70;94.10;;;;;;5101950;28;20395;-69
2022/05/13 08:54:18;;;;;;;8.70;2.57;;;16.70;94.10;;;;;;5096161;28;20410;-70
2022/05/13 08:56:48;;;;;;;5.33;2.30;;;16.80;93.90;;;;;;5095234;28;20403;-69
2022/05/13 08:59:23;;;;;;;6.47;3.00;;;17.00;93.80;;;;;;5094356;28;20408;-69
2022/05/13 09:02:09;;;;;;;4.93;2.10;;;17.00;93.00;;;;;;5095485;28;20917;-69
2022/05/13 09:04:38;;;;;;;6.83;2.20;;;16.90;92.40;;;;;;5095621;28;20510;-69
2022/05/13 09:07:22;;;;;;;6.63;2.60;;;16.90;92.10;;;;;;5095691;28;20899;-70
2022/05/13 09:09:51;;;;;;;4.10;2.50;;;16.80;92.30;;;;;;5093243;28;20493;-71
2022/05/13 09:12:20;;;;;;;5.80;3.30;;;16.70;92.10;;;;;;5095679;28;20631;-69
2022/05/13 09:14:45;;;;;;;4.97;2.60;;;16.60;92.40;;;;;;5095472;28;20772;-70
2022/05/13 09:17:33;;;;;;;5.77;2.63;;;16.70;92.40;;;;;;5095293;28;20402;-70
2022/05/13 09:20:19;;;;;;;3.23;2.40;;;16.90;92.40;;;;;;5095731;28;20205;-69
2022/05/13 09:22:54;;;;;;;3.57;2.00;;;17.00;92.50;;;;;;5095412;28;20409;-69
2022/05/13 09:25:37;;;;;;;4.33;2.03;;;17.00;92.20;;;;;;5095099;28;20473;-70
2022/05/13 09:28:15;;;;;;;3.60;2.00;;;17.00;92.30;;;;;;5095284;28;20414;-70
2022/05/13 09:30:46;;;;;;;4.50;2.60;;;17.00;91.90;;;;;;5095258;28;20457;-70
2022/05/13 09:33:32;;;;;;;3.70;2.33;;;17.00;91.30;;;;;;5095598;28;20813;-69
2022/05/13 09:36:16;;;;;;;3.30;2.37;;;16.80;91.70;;;;;;5095303;28;20456;-70
2022/05/13 09:38:51;;;;;;;6.50;2.37;;;16.90;92.20;;;;;;5093678;28;20411;-69
2022/05/13 09:41:27;;;;;;;2.80;1.97;;;17.00;92.10;;;;;;5093110;28;20437;-71
2022/05/13 09:43:55;;;;;;;6.00;2.57;;;17.00;92.30;;;;;;5095026;28;20738;-70
2022/05/13 09:46:33;;;;;;;4.13;2.60;;;17.10;92.00;;;;;;5094778;28;20482;-71
2022/05/13 09:49:04;;;;;;;4.80;2.23;;;17.20;92.10;;;;;;5094841;28;20403;-70
2022/05/13 09:51:36;;;;;;;3.83;2.40;;;17.50;92.00;;;;;;5093001;28;20417;-70
2022/05/13 09:54:22;;;;;;;2.77;1.67;;;17.60;91.80;;;;;;5075511;28;20430;-70
2022/05/13 09:56:53;;;;;;;4.87;1.80;;;17.80;91.10;;;;;;5074443;28;20403;-70
2022/05/13 09:59:22;;;;;;;3.57;1.83;;;17.90;89.30;;;;;;5073869;28;20423;-70
2022/05/13 10:01:48;;;;;;;4.93;2.10;;;18.10;90.00;;;;;;5075321;28;20420;-71
2022/05/13 10:04:20;;;;;;;2.73;1.77;;;18.00;90.10;;;;;;5074326;28;20821;-71
2022/05/13 10:06:47;;;;;;;3.30;1.73;;;18.00;90.20;;;;;;5074786;28;20831;-71
2022/05/13 10:15:10;;;;;;;1.73;1.63;;;17.90;89.70;;;;;;5099293;28;20493;-68
2022/05/13 10:17:43;;;;;;;5.03;1.90;;;17.70;90.20;;;;;;5097429;28;20417;-68
2022/05/13 10:20:25;;;;;;;2.20;1.40;;;17.60;88.90;;;;;;5097264;28;20407;-69
2022/05/13 10:23:23;;;;;;;2.43;1.70;;;17.60;88.90;;;;;;5077783;28;20916;-69
2022/05/13 10:25:55;;;;;;;3.13;2.20;;;17.60;88.70;;;;;;5072691;28;20466;-69
2022/05/13 10:28:28;;;;;;;4.60;2.07;;;17.70;88.00;;;;;;5077606;28;20408;-69
2022/05/13 10:31:17;;;;;;;3.30;1.77;;;17.50;89.10;;;;;;5077709;28;20928;-69
2022/05/13 10:33:55;;;;;;;4.10;2.00;;;17.30;90.10;;;;;;5079383;28;20419;-70
2022/05/13 10:36:37;;;;;;;4.30;1.80;;;17.40;90.20;;;;;;5083100;28;20411;-69
2022/05/13 10:39:09;;;;;;;3.60;2.10;;;17.60;89.50;;;;;;5096866;28;20411;-70
2022/05/13 10:41:45;;;;;;;3.20;2.20;;;17.60;88.90;;;;;;5096981;28;20934;-68
2022/05/13 10:44:19;;;;;;;4.37;1.90;;;17.70;88.90;;;;;;5097588;28;20418;-69
2022/05/13 10:46:52;;;;;;;5.30;3.07;;;17.80;89.10;;;;;;5093900;28;20449;-69
2022/05/13 10:49:18;;;;;;;3.37;2.30;;;17.90;89.30;;;;;;5095048;28;20486;-70
2022/05/13 10:51:53;;;;;;;4.17;1.57;;;17.90;89.10;;;;;;5097398;28;20435;-70
2022/05/13 10:54:39;;;;;;;2.80;2.03;;;17.70;88.00;;;;;;5096382;28;20402;-69
2022/05/13 10:57:20;;;;;;;4.80;2.50;;;17.80;88.10;;;;;;5094579;28;20422;-70
2022/05/13 11:00:12;;;;;;;1.77;1.30;;;17.90;88.70;;;;;;5097646;28;20403;-69
2022/05/13 11:02:55;;;;;;;6.23;1.80;;;18.10;88.40;;;;;;5097711;28;20452;-69
2022/05/13 11:05:35;;;;;;;1.93;1.50;;;18.30;87.10;;;;;;5095932;28;20499;-70
2022/05/13 11:08:40;;;;;;;5.80;2.07;;;18.20;85.90;;;;;;5095172;28;20496;-68
2022/05/13 11:11:19;;;;;;;3.60;1.80;;;18.20;86.00;;;;;;5056998;28;20455;-69
2022/05/13 11:14:04;;;;;;;4.20;2.00;;;18.30;85.60;;;;;;5075656;28;20990;-70
2022/05/13 11:16:48;;;;;;;2.22;1.70;;;18.40;85.20;;;;;;5073953;28;20422;-69
2022/05/13 11:19:37;;;;;;;1.70;1.60;;;18.30;83.00;;;;;;5071834;28;20382;-68
2022/05/13 11:22:38;;;;;;;2.60;1.57;;;18.30;83.00;;;;;;5057609;28;20444;-70
2022/05/13 11:28:47;;;;;;;3.70;1.70;;;18.60;84.80;;;;;;5075890;28;20457;-70
2022/05/13 11:31:44;;;;;;;2.70;1.80;;;18.60;85.40;;;;;;5082333;28;20431;-70
2022/05/13 11:34:26;;;;;;;3.17;2.53;;;18.70;85.10;;;;;;5061814;28;20406;-71
2022/05/13 11:37:05;;;;;;;3.47;2.20;;;18.80;85.10;;;;;;5061898;28;20414;-70
2022/05/13 11:39:39;;;;;;;2.77;1.80;;;18.80;84.50;;;;;;5075451;28;20814;-69
2022/05/13 11:42:28;;;;;;;3.53;1.87;;;18.70;84.50;;;;;;5089868;28;20469;-70
2022/05/13 11:45:29;;;;;;;2.93;1.93;;;18.50;85.00;;;;;;5100357;28;20486;-70
2022/05/13 11:48:20;;;;;;;2.97;2.10;;;18.60;85.80;;;;;;5098928;28;20403;-69
2022/05/13 11:50:46;;;;;;;5.37;2.70;;;18.70;85.10;;;;;;5096830;28;20481;-70
2022/05/13 11:53:31;;;;;;;4.60;1.97;;;18.70;84.80;;;;;;5098975;28;20414;-70
2022/05/13 11:55:57;;;;;;;2.70;1.90;;;18.70;85.20;;;;;;5098688;28;20663;-69
2022/05/13 11:58:50;;;;;;;5.57;2.43;;;18.80;84.60;;;;;;5099230;28;20510;-69
2022/05/13 12:01:34;;;;;;;2.53;1.83;;;19.00;83.60;;;;;;5096589;28;20218;-69
2022/05/13 12:04:11;;;;;;;2.30;2.03;;;18.90;83.10;;;;;;5098179;28;20418;-70
2022/05/13 12:06:49;;;;;;;2.27;2.10;;;19.00;83.60;;;;;;5098766;28;20458;-70
2022/05/13 12:09:24;;;;;;;4.97;2.33;;;19.00;83.30;;;;;;5096966;28;20406;-70
2022/05/13 12:12:21;;;;;;;3.43;2.20;;;19.10;83.20;;;;;;5096222;28;20799;-69
2022/05/13 12:14:57;;;;;;;3.60;2.27;;;19.00;83.70;;;;;;5098523;28;20407;-70
2022/05/13 12:17:36;;;;;;;3.50;2.63;;;19.00;83.90;;;;;;5097656;28;20406;-69
2022/05/13 12:20:02;;;;;;;7.37;3.20;;;18.90;84.20;;;;;;5098271;28;20402;-68
2022/05/13 12:22:31;;;;;;;5.90;3.67;;;19.00;84.40;;;;;;5096496;28;20526;-70
2022/05/13 12:25:32;;;;;;;4.73;3.40;;;19.00;84.60;;;;;;5098653;28;20560;-68
2022/05/13 12:28:21;;;;;;;5.77;2.63;;;19.20;82.70;;;;;;5076415;28;20441;-69
2022/05/13 12:30:50;;;;;;;8.33;3.20;;;19.20;82.50;;;;;;5075494;28;20436;-70
2022/05/13 12:33:24;;;;;;;3.23;2.27;;;19.20;83.00;;;;;;5074284;28;20415;-69
2022/05/13 12:39:06;;;;;;;3.40;2.00;;;19.20;83.30;;;;;;5056210;28;20466;-69
2022/05/13 12:41:51;;;;;;;3.57;2.40;;;19.10;83.60;;;;;;5054803;28;20432;-69
2022/05/13 12:44:32;;;;;;;2.87;2.57;;;19.20;83.50;;;;;;5054991;28;20427;-70
2022/05/13 12:47:13;;;;;;;5.90;3.10;;;19.20;82.80;;;;;;5055814;28;20484;-69
2022/05/13 12:49:57;;;;;;;5.43;2.57;;;19.20;82.80;;;;;;5053229;28;20444;-68
2022/05/13 12:52:34;;;;;;;4.27;2.90;;;19.30;82.10;;;;;;5053319;28;20435;-68
2022/05/13 12:55:18;;;;;;;4.07;2.53;;;19.40;82.50;;;;;;5055087;28;20412;-70
2022/05/13 12:57:47;;;;;;;4.00;2.30;;;19.60;81.30;;;;;;5055364;28;20425;-70
2022/05/13 13:00:19;;;;;;;3.10;2.60;;;19.40;81.70;;;;;;5053214;28;20536;-69
2022/05/13 13:02:53;;;;;;;4.10;2.70;;;19.10;81.30;;;;;;5052954;28;20408;-70
2022/05/13 13:05:27;;;;;;;2.80;2.07;;;19.10;82.70;;;;;;5069660;28;20458;-69
2022/05/13 13:07:54;;;;;;;2.40;2.17;;;19.40;82.70;;;;;;5076938;28;20497;-69
2022/05/13 13:10:22;;;;;;;5.80;2.87;;;19.60;82.60;;;;;;5075658;28;20969;-69
2022/05/13 13:12:56;;;;;;;5.63;2.30;;;19.70;81.50;;;;;;5095219;28;20933;-68
2022/05/13 13:15:26;;;;;;;5.50;2.90;;;19.90;81.60;;;;;;5095403;28;20409;-69
2022/05/13 13:17:58;;;;;;;2.33;2.13;;;20.10;80.70;;;;;;5094585;28;20429;-68
2022/05/13 13:20:27;;;;;;;5.43;2.37;;;20.10;80.20;;;;;;5091585;28;20423;-68
2022/05/13 13:23:02;;;;;;;4.23;2.10;;;20.20;80.80;;;;;;5094652;28;20411;-69
2022/05/13 13:25:40;;;;;;;4.03;2.40;;;20.10;80.40;;;;;;5095023;28;20507;-68
2022/05/13 13:28:10;;;;;;;7.10;2.47;;;20.10;80.20;;;;;;5097349;28;20414;-69
2022/05/13 13:30:41;;;;;;;3.90;2.67;;;20.30;80.20;;;;;;5096645;28;20495;-69
2022/05/13 13:33:09;;;;;;;4.73;2.43;;;20.40;79.30;;;;;;5099128;28;20402;-68
2022/05/13 13:35:41;;;;;;;3.97;2.20;;;20.30;78.80;;;;;;5099043;28;20411;-69
2022/05/13 13:38:09;;;;;;;5.03;3.00;;;20.30;79.10;;;;;;5099365;28;20456;-69
2022/05/13 13:40:41;;;;;;;6.37;2.63;;;20.40;79.20;;;;;;5096028;28;20442;-68